Time;durP1;ratioP1;P1;durP2;ratioP2;P2;SDS_P1;SDS_P2;PMS_P1;PMS_P2;Temp;Humidity;BMP_temperature;BMP_pressure;BME280_temperature;BME280_humidity;BME280_pressure;Samples;Min_cycle;Max_cycle;Signal;HPM_P1;HPM_P2
2023/10/05 00:01:07;;;;;;;0.00;0.00;;;15.30;99.90;;;;;;5006351;28;20125;-64
2023/10/05 00:03:37;;;;;;;0.38;0.30;;;15.30;99.90;;;;;;5003086;28;20053;-64
2023/10/05 00:09:11;;;;;;;0.00;0.00;;;15.30;99.90;;;;;;4981853;28;20038;-64
2023/10/05 00:11:36;;;;;;;0.40;0.40;;;15.30;99.90;;;;;;4994947;28;20073;-64
2023/10/05 00:14:06;;;;;;;1.08;0.98;;;15.30;99.90;;;;;;5001612;28;20050;-65
2023/10/05 00:16:38;;;;;;;1.98;1.17;;;15.30;99.90;;;;;;5005841;28;20541;-64
2023/10/05 00:19:11;;;;;;;0.98;0.88;;;15.30;99.90;;;;;;4995784;28;20810;-64
2023/10/05 00:21:39;;;;;;;;;;;15.30;99.90;;;;;;5003565;28;20045;-64
2023/10/05 00:24:06;;;;;;;0.25;0.25;;;15.30;99.90;;;;;;4999729;28;19929;-64
2023/10/05 00:26:36;;;;;;;0.00;0.00;;;15.30;99.90;;;;;;5003465;28;20501;-64
2023/10/05 00:31:44;;;;;;;0.70;0.70;;;15.30;99.90;;;;;;5001488;28;20493;-64
2023/10/05 00:34:24;;;;;;;2.63;1.27;;;15.30;99.90;;;;;;5004014;28;20038;-64
2023/10/05 00:36:50;;;;;;;0.65;0.57;;;15.30;99.90;;;;;;4999399;28;20136;-64
2023/10/05 00:39:21;;;;;;;0.10;0.10;;;15.30;99.90;;;;;;5006088;28;20233;-64
2023/10/05 00:44:30;;;;;;;0.00;0.00;;;15.30;99.90;;;;;;5000167;28;20054;-64
2023/10/05 00:47:00;;;;;;;0.00;0.00;;;15.30;99.90;;;;;;5003680;28;20057;-64
2023/10/05 00:49:28;;;;;;;0.38;0.38;;;15.30;99.90;;;;;;5009209;28;20042;-64
2023/10/05 00:52:06;;;;;;;0.00;0.00;;;15.20;99.90;;;;;;4999840;28;20042;-64
2023/10/05 00:54:34;;;;;;;0.73;0.28;;;15.20;99.90;;;;;;4996345;28;20081;-64
2023/10/05 00:57:08;;;;;;;0.00;0.00;;;15.20;99.90;;;;;;5005114;28;20045;-64
2023/10/05 00:59:36;;;;;;;13.45;1.45;;;15.20;99.90;;;;;;5001163;28;20706;-64
2023/10/05 01:02:14;;;;;;;0.52;0.52;;;15.20;99.90;;;;;;5006296;28;20046;-65
2023/10/05 01:07:29;;;;;;;36.72;1.20;;;15.20;99.90;;;;;;4998919;28;20104;-65
2023/10/05 01:14:58;;;;;;;0.00;0.00;;;15.20;99.90;;;;;;5001321;28;20181;-64
2023/10/05 01:17:26;;;;;;;0.00;0.00;;;15.20;99.90;;;;;;5000874;28;20507;-64
2023/10/05 01:19:56;;;;;;;0.80;0.80;;;15.20;99.90;;;;;;5003108;28;20413;-64
2023/10/05 01:22:23;;;;;;;0.40;0.40;;;15.10;99.90;;;;;;5008025;28;20041;-64
2023/10/05 01:24:52;;;;;;;0.57;0.57;;;15.10;99.90;;;;;;5004862;28;20509;-64
2023/10/05 01:27:19;;;;;;;0.30;0.30;;;15.10;99.90;;;;;;5000611;28;20577;-64
2023/10/05 01:29:44;;;;;;;0.00;0.00;;;15.20;99.90;;;;;;5000156;28;20077;-64
2023/10/05 01:32:10;;;;;;;0.00;0.00;;;15.10;99.90;;;;;;5001477;28;20088;-65
2023/10/05 01:34:37;;;;;;;0.90;0.88;;;15.20;99.90;;;;;;5004713;28;20776;-65
2023/10/05 01:37:05;;;;;;;0.15;0.15;;;15.20;99.90;;;;;;5007024;28;20551;-64
2023/10/05 01:39:35;;;;;;;0.05;0.05;;;15.20;99.90;;;;;;5001477;28;20751;-65
2023/10/05 01:42:06;;;;;;;0.57;0.57;;;15.20;99.90;;;;;;5000859;28;20042;-64
2023/10/05 01:44:36;;;;;;;0.52;0.52;;;15.20;99.90;;;;;;5001014;28;20073;-65
2023/10/05 01:47:01;;;;;;;0.25;0.25;;;15.20;99.90;;;;;;4995669;28;21159;-65
2023/10/05 01:49:27;;;;;;;0.22;0.22;;;15.20;99.90;;;;;;4996804;28;20030;-65
2023/10/05 01:51:53;;;;;;;1.35;1.25;;;15.10;99.90;;;;;;4998780;28;20053;-65
2023/10/05 01:54:19;;;;;;;0.10;0.10;;;15.10;99.90;;;;;;5006269;28;20046;-65
2023/10/05 01:56:47;;;;;;;0.25;0.25;;;15.10;99.90;;;;;;5004788;28;20044;-65
2023/10/05 01:59:13;;;;;;;2.78;1.25;;;15.10;99.90;;;;;;5003104;28;20148;-65
2023/10/05 02:01:40;;;;;;;0.10;0.10;;;15.10;99.90;;;;;;5001020;28;20513;-65
2023/10/05 02:04:07;;;;;;;0.10;0.10;;;15.10;99.90;;;;;;5008505;28;20397;-65
2023/10/05 02:06:40;;;;;;;0.00;0.00;;;15.10;99.90;;;;;;4995322;28;20127;-65
2023/10/05 02:09:06;;;;;;;0.00;0.00;;;15.10;99.90;;;;;;4994551;28;20153;-65
2023/10/05 02:11:33;;;;;;;0.03;0.03;;;15.10;99.90;;;;;;5003047;28;20046;-65
2023/10/05 02:14:06;;;;;;;0.00;0.00;;;15.10;99.90;;;;;;5002618;28;20116;-65
2023/10/05 02:16:32;;;;;;;0.10;0.10;;;15.00;99.90;;;;;;5004297;28;20034;-65
2023/10/05 02:19:02;;;;;;;0.17;0.17;;;15.10;99.90;;;;;;5000618;28;20406;-65
2023/10/05 02:21:32;;;;;;;0.17;0.17;;;15.10;99.90;;;;;;5005828;28;20042;-65
2023/10/05 02:24:04;;;;;;;0.30;0.30;;;15.00;99.90;;;;;;5004598;28;20039;-65
2023/10/05 02:26:35;;;;;;;0.20;0.20;;;15.10;99.90;;;;;;4999201;28;20057;-65
2023/10/05 02:29:13;;;;;;;0.00;0.00;;;15.10;99.90;;;;;;5000348;28;20061;-65
2023/10/05 02:31:50;;;;;;;0.32;0.28;;;15.10;99.90;;;;;;5001259;28;20051;-65
2023/10/05 02:34:20;;;;;;;7.47;2.03;;;15.00;99.90;;;;;;5003388;28;20093;-65
2023/10/05 02:36:45;;;;;;;0.10;0.10;;;15.00;99.90;;;;;;4996434;28;20052;-65
2023/10/05 02:39:11;;;;;;;0.85;0.85;;;15.00;99.90;;;;;;4999409;28;20042;-65
2023/10/05 02:41:39;;;;;;;0.28;0.28;;;15.00;99.90;;;;;;5003619;28;20040;-65
2023/10/05 02:44:17;;;;;;;17.05;1.00;;;15.00;99.90;;;;;;4996035;28;20043;-65
2023/10/05 02:46:47;;;;;;;0.10;0.10;;;15.00;99.90;;;;;;4999290;28;20042;-65
2023/10/05 02:49:15;;;;;;;0.10;0.10;;;15.00;99.90;;;;;;5002822;28;20073;-65
2023/10/05 02:51:41;;;;;;;1.15;0.57;;;15.00;99.90;;;;;;4997333;28;20049;-65
2023/10/05 02:54:10;;;;;;;0.05;0.05;;;15.00;99.90;;;;;;4999959;28;20062;-65
2023/10/05 02:56:36;;;;;;;4.75;1.75;;;15.00;99.90;;;;;;5006967;28;20389;-64
2023/10/05 02:59:11;;;;;;;0.43;0.43;;;14.90;99.90;;;;;;5002058;28;20054;-65
2023/10/05 03:01:37;;;;;;;0.00;0.00;;;14.90;99.90;;;;;;5001505;28;20438;-65
2023/10/05 03:04:09;;;;;;;0.20;0.20;;;14.90;99.90;;;;;;5000637;28;20085;-65
2023/10/05 03:06:36;;;;;;;0.00;0.00;;;14.90;99.90;;;;;;4999433;28;20558;-64
2023/10/05 03:09:07;;;;;;;0.00;0.00;;;14.90;99.90;;;;;;5003948;28;20532;-65
2023/10/05 03:11:50;;;;;;;1.58;0.77;;;14.80;99.90;;;;;;5000842;28;20433;-65
2023/10/05 03:14:17;;;;;;;0.80;0.80;;;14.90;99.90;;;;;;5021202;28;20050;-65
2023/10/05 03:16:43;;;;;;;0.00;0.00;;;14.90;99.90;;;;;;5003949;28;20080;-65
2023/10/05 03:19:22;;;;;;;0.00;0.00;;;14.90;99.90;;;;;;5001799;28;20112;-65
2023/10/05 03:21:52;;;;;;;0.00;0.00;;;14.90;99.90;;;;;;5005805;28;20061;-65
2023/10/05 03:24:19;;;;;;;0.00;0.00;;;14.80;99.90;;;;;;5010435;28;20038;-65
2023/10/05 03:26:47;;;;;;;0.30;0.30;;;14.90;99.90;;;;;;5006478;28;20072;-65
2023/10/05 03:29:12;;;;;;;0.10;0.10;;;14.90;99.90;;;;;;5003131;28;20065;-65
2023/10/05 03:31:52;;;;;;;0.03;0.03;;;14.80;99.90;;;;;;5009204;28;20042;-65
2023/10/05 03:34:18;;;;;;;0.85;0.85;;;14.80;99.90;;;;;;5005356;28;20061;-65
2023/10/05 03:36:47;;;;;;;1.13;1.08;;;14.80;99.90;;;;;;5009227;28;20040;-65
2023/10/05 03:39:13;;;;;;;0.10;0.10;;;14.90;99.90;;;;;;5002041;28;20054;-65
2023/10/05 03:41:39;;;;;;;4.65;1.50;;;14.90;99.90;;;;;;4996299;28;20042;-65
2023/10/05 03:44:07;;;;;;;1.00;0.70;;;14.90;99.90;;;;;;5004903;28;20042;-65
2023/10/05 03:46:34;;;;;;;0.00;0.00;;;14.90;99.90;;;;;;5004072;28;20065;-65
2023/10/05 03:49:02;;;;;;;0.20;0.20;;;14.90;99.90;;;;;;5000445;28;20061;-65
2023/10/05 03:51:31;;;;;;;2.63;2.40;;;15.00;99.90;;;;;;5004162;28;20049;-65
2023/10/05 03:53:57;;;;;;;0.45;0.45;;;15.00;99.90;;;;;;5007524;28;20581;-65
2023/10/05 03:56:25;;;;;;;0.00;0.00;;;15.00;99.90;;;;;;4999965;28;20153;-65
2023/10/05 03:58:52;;;;;;;0.82;0.82;;;15.00;99.90;;;;;;5006664;28;20054;-65
2023/10/05 04:01:19;;;;;;;0.52;0.52;;;15.00;99.90;;;;;;5004459;28;20045;-65
2023/10/05 04:03:49;;;;;;;0.08;0.08;;;15.00;99.90;;;;;;5007384;28;20033;-65
2023/10/05 04:06:17;;;;;;;0.00;0.00;;;15.00;99.90;;;;;;5000778;28;20038;-65
2023/10/05 04:08:50;;;;;;;0.05;0.05;;;15.00;99.90;;;;;;5005572;28;20081;-65
2023/10/05 04:11:17;;;;;;;1.75;0.88;;;15.00;99.90;;;;;;5006076;28;20057;-65
2023/10/05 04:13:43;;;;;;;0.20;0.20;;;15.00;99.90;;;;;;4994533;28;20803;-65
2023/10/05 04:16:17;;;;;;;0.00;0.00;;;15.00;99.90;;;;;;4999979;28;20038;-65
2023/10/05 04:18:46;;;;;;;0.00;0.00;;;15.00;99.90;;;;;;4999745;28;20050;-65
2023/10/05 04:21:13;;;;;;;0.22;0.22;;;15.00;99.90;;;;;;5004270;28;20073;-65
2023/10/05 04:23:40;;;;;;;0.22;0.22;;;15.00;99.90;;;;;;5003095;28;20054;-65
2023/10/05 04:26:08;;;;;;;0.10;0.10;;;15.00;99.90;;;;;;4996411;28;20046;-65
2023/10/05 04:28:35;;;;;;;0.00;0.00;;;15.00;99.90;;;;;;5006461;28;20057;-65
2023/10/05 04:31:01;;;;;;;0.10;0.10;;;14.90;99.90;;;;;;5003543;28;20076;-64
2023/10/05 04:33:27;;;;;;;2.17;1.20;;;14.90;99.90;;;;;;5008468;28;20517;-64
2023/10/05 04:35:53;;;;;;;10.05;1.27;;;15.00;99.90;;;;;;5004456;28;20462;-63
2023/10/05 04:38:25;;;;;;;0.30;0.30;;;15.00;99.90;;;;;;5006194;28;20033;-64
2023/10/05 04:40:51;;;;;;;0.13;0.13;;;15.00;99.90;;;;;;5008375;28;20930;-64
2023/10/05 04:43:19;;;;;;;0.35;0.28;;;14.90;99.90;;;;;;5004467;28;20502;-64
2023/10/05 04:45:46;;;;;;;0.00;0.00;;;14.90;99.90;;;;;;4997888;28;20039;-64
2023/10/05 04:48:12;;;;;;;0.30;0.30;;;15.00;99.90;;;;;;5006698;28;20116;-64
2023/10/05 04:50:41;;;;;;;0.17;0.17;;;15.00;99.90;;;;;;5003673;28;20065;-63
2023/10/05 04:53:09;;;;;;;0.10;0.10;;;15.00;99.90;;;;;;4996285;28;20560;-64
2023/10/05 04:55:42;;;;;;;0.00;0.00;;;15.00;99.90;;;;;;5002444;28;20483;-64
2023/10/05 04:58:20;;;;;;;0.00;0.00;;;15.00;99.90;;;;;;4994232;28;20475;-64
2023/10/05 05:08:26;;;;;;;0.38;0.35;;;14.90;99.90;;;;;;5001667;28;20042;-64
2023/10/05 05:10:52;;;;;;;4.20;1.35;;;14.90;99.90;;;;;;5000615;28;20557;-64
2023/10/05 05:13:20;;;;;;;2.92;1.58;;;14.90;99.90;;;;;;4999629;28;20125;-64
2023/10/05 05:15:46;;;;;;;0.95;0.65;;;14.90;99.90;;;;;;4999360;28;20049;-64
2023/10/05 05:18:15;;;;;;;0.32;0.32;;;14.90;99.90;;;;;;5000243;28;20056;-64
2023/10/05 05:20:47;;;;;;;0.00;0.00;;;14.90;99.90;;;;;;4998352;28;20046;-64
2023/10/05 05:23:13;;;;;;;0.00;0.00;;;14.90;99.90;;;;;;4998401;28;20080;-64
2023/10/05 05:25:39;;;;;;;0.00;0.00;;;14.90;99.90;;;;;;5004372;28;20069;-64
2023/10/05 05:28:05;;;;;;;0.32;0.32;;;14.90;99.90;;;;;;5003745;28;20092;-64
2023/10/05 05:30:32;;;;;;;0.00;0.00;;;14.90;99.90;;;;;;5004262;28;20096;-64
2023/10/05 05:32:58;;;;;;;9.02;1.23;;;14.90;99.90;;;;;;4995943;28;20173;-64
2023/10/05 05:35:24;;;;;;;19.80;0.52;;;14.90;99.90;;;;;;5000221;28;20157;-64
2023/10/05 05:37:50;;;;;;;0.15;0.15;;;14.90;99.90;;;;;;5000608;28;20532;-64
2023/10/05 05:40:15;;;;;;;0.05;0.05;;;14.90;99.90;;;;;;4998356;28;20125;-64
2023/10/05 05:42:44;;;;;;;2.28;2.08;;;14.90;99.90;;;;;;5004164;28;20069;-64
2023/10/05 05:45:16;;;;;;;0.30;0.30;;;15.00;99.90;;;;;;5001157;28;20041;-64
2023/10/05 05:47:43;;;;;;;4.47;0.75;;;15.00;99.90;;;;;;5007416;28;20313;-64
2023/10/05 05:50:15;;;;;;;0.20;0.10;;;15.10;99.90;;;;;;4996977;28;20045;-65
2023/10/05 05:52:41;;;;;;;0.30;0.30;;;15.10;99.90;;;;;;5002519;28;20512;-64
2023/10/05 05:55:10;;;;;;;0.75;0.40;;;15.00;99.90;;;;;;4995929;28;20145;-64
2023/10/05 05:57:36;;;;;;;0.10;0.10;;;15.00;99.90;;;;;;5019314;28;20053;-64
2023/10/05 06:00:11;;;;;;;0.75;0.75;;;15.10;99.90;;;;;;5001658;28;20041;-65
2023/10/05 06:02:40;;;;;;;0.05;0.05;;;15.10;99.90;;;;;;4995442;28;20914;-63
2023/10/05 06:05:12;;;;;;;0.77;0.77;;;15.10;99.90;;;;;;4995796;28;20046;-64
2023/10/05 06:07:39;;;;;;;0.10;0.10;;;15.10;99.90;;;;;;4997825;28;20915;-64
2023/10/05 06:10:12;;;;;;;0.00;0.00;;;15.10;99.90;;;;;;5000781;28;20500;-65
2023/10/05 06:12:50;;;;;;;0.25;0.25;;;15.10;99.90;;;;;;4998844;28;20125;-64
2023/10/05 06:15:16;;;;;;;0.00;0.00;;;15.10;99.90;;;;;;5008696;28;20100;-65
2023/10/05 06:17:43;;;;;;;0.00;0.00;;;15.20;99.90;;;;;;5008954;28;20045;-64
2023/10/05 06:20:15;;;;;;;0.17;0.17;;;15.20;99.90;;;;;;5006046;28;20429;-64
2023/10/05 06:22:50;;;;;;;22.58;0.90;;;15.20;99.90;;;;;;5000333;28;20041;-65
2023/10/05 06:25:17;;;;;;;0.90;0.60;;;15.20;99.90;;;;;;5020411;28;20041;-65
2023/10/05 06:27:44;;;;;;;0.10;0.10;;;15.20;99.90;;;;;;5004959;28;20046;-65
2023/10/05 06:30:14;;;;;;;0.68;0.45;;;15.20;99.90;;;;;;5006909;28;20410;-65
2023/10/05 06:32:40;;;;;;;0.95;0.65;;;15.20;99.90;;;;;;4992689;28;20111;-64
2023/10/05 06:35:11;;;;;;;2.30;0.98;;;15.20;99.90;;;;;;5006362;28;20145;-65
2023/10/05 06:37:39;;;;;;;0.03;0.03;;;15.20;99.90;;;;;;5006170;28;20121;-65
2023/10/05 06:40:21;;;;;;;0.10;0.10;;;15.20;99.90;;;;;;5010947;28;20077;-64
2023/10/05 06:42:51;;;;;;;0.30;0.30;;;15.20;99.90;;;;;;5005792;28;20096;-65
2023/10/05 06:45:19;;;;;;;0.00;0.00;;;15.20;99.90;;;;;;5007416;28;20049;-64
2023/10/05 06:47:45;;;;;;;0.00;0.00;;;15.20;99.90;;;;;;5011227;28;20433;-65
2023/10/05 06:50:11;;;;;;;0.10;0.10;;;15.20;99.90;;;;;;4998448;28;20125;-65
2023/10/05 06:52:39;;;;;;;2.65;0.47;;;15.20;99.90;;;;;;5007553;28;20113;-65
2023/10/05 06:55:07;;;;;;;0.17;0.17;;;15.20;99.90;;;;;;5000702;28;20049;-65
2023/10/05 06:57:35;;;;;;;0.10;0.10;;;15.20;99.90;;;;;;5009009;28;20046;-65
2023/10/05 07:00:16;;;;;;;0.55;0.55;;;15.20;99.90;;;;;;5006682;28;20096;-65
2023/10/05 07:02:45;;;;;;;0.00;0.00;;;15.20;99.90;;;;;;5006531;28;20049;-65
2023/10/05 07:05:11;;;;;;;0.17;0.17;;;15.20;99.90;;;;;;4994900;28;20046;-65
2023/10/05 07:07:37;;;;;;;0.60;0.60;;;15.10;99.90;;;;;;5007921;28;20041;-66
2023/10/05 07:10:04;;;;;;;0.13;0.13;;;15.10;99.90;;;;;;5000457;28;20586;-66
2023/10/05 07:12:35;;;;;;;0.00;0.00;;;15.10;99.90;;;;;;5012422;28;20042;-65
2023/10/05 07:15:01;;;;;;;0.00;0.00;;;15.10;99.90;;;;;;5012093;28;20049;-65
2023/10/05 07:17:29;;;;;;;0.05;0.05;;;15.10;99.90;;;;;;5009687;28;20046;-65
2023/10/05 07:19:54;;;;;;;2.95;0.60;;;15.10;99.90;;;;;;5003502;28;20096;-65
2023/10/05 07:22:21;;;;;;;0.03;0.03;;;15.10;99.90;;;;;;4999494;28;20053;-65
2023/10/05 07:24:47;;;;;;;0.40;0.40;;;15.10;99.90;;;;;;5008317;28;20057;-65
2023/10/05 07:27:13;;;;;;;0.00;0.00;;;15.10;99.90;;;;;;5012278;28;20038;-64
2023/10/05 07:29:44;;;;;;;0.55;0.22;;;15.10;99.90;;;;;;5004714;28;20133;-64
2023/10/05 07:32:11;;;;;;;0.05;0.05;;;15.10;99.90;;;;;;4998530;28;20101;-65
2023/10/05 07:34:37;;;;;;;0.73;0.47;;;15.20;99.90;;;;;;5006756;28;20088;-65
2023/10/05 07:37:03;;;;;;;0.20;0.20;;;15.20;99.90;;;;;;5003991;28;20061;-65
2023/10/05 07:39:28;;;;;;;0.05;0.05;;;15.20;99.90;;;;;;5006751;28;20057;-65
2023/10/05 07:41:54;;;;;;;0.22;0.22;;;15.20;99.90;;;;;;4995924;28;20053;-65
2023/10/05 07:44:20;;;;;;;0.10;0.10;;;15.20;99.90;;;;;;5002868;28;20478;-64
2023/10/05 07:46:46;;;;;;;0.00;0.00;;;15.20;99.90;;;;;;5006543;28;20096;-64
2023/10/05 07:49:13;;;;;;;0.10;0.10;;;15.20;99.90;;;;;;5004678;28;20053;-64
2023/10/05 07:51:39;;;;;;;0.20;0.20;;;15.20;99.90;;;;;;5008172;28;20470;-64
2023/10/05 07:54:05;;;;;;;0.03;0.03;;;15.20;99.90;;;;;;5007447;28;20057;-64
2023/10/05 07:56:32;;;;;;;5.93;0.90;;;15.20;99.90;;;;;;5007157;28;20161;-64
2023/10/05 07:58:58;;;;;;;0.00;0.00;;;15.20;99.90;;;;;;5005914;28;20125;-64
2023/10/05 08:01:25;;;;;;;5.82;3.13;;;15.20;99.90;;;;;;5001857;28;20057;-64
2023/10/05 08:03:51;;;;;;;0.20;0.20;;;15.30;99.90;;;;;;5009722;28;20104;-64
2023/10/05 08:06:18;;;;;;;0.10;0.10;;;15.30;99.90;;;;;;4995326;28;20317;-64
2023/10/05 08:08:44;;;;;;;1.27;0.55;;;15.40;99.90;;;;;;5004845;28;20045;-64
2023/10/05 08:11:15;;;;;;;5.38;1.08;;;15.40;99.90;;;;;;5009669;28;20037;-64
2023/10/05 08:13:42;;;;;;;0.00;0.00;;;15.40;99.90;;;;;;4997852;28;20112;-64
2023/10/05 08:16:08;;;;;;;0.20;0.20;;;15.40;99.90;;;;;;5011200;28;20052;-64
2023/10/05 08:18:34;;;;;;;0.15;0.15;;;15.40;99.90;;;;;;5003996;28;20042;-64
2023/10/05 08:21:00;;;;;;;0.47;0.47;;;15.50;99.90;;;;;;5004167;28;20088;-64
2023/10/05 08:23:28;;;;;;;0.00;0.00;;;15.40;99.90;;;;;;5000903;28;20433;-64
2023/10/05 08:25:57;;;;;;;0.10;0.10;;;15.40;99.90;;;;;;5008729;28;20046;-64
2023/10/05 08:28:24;;;;;;;0.00;0.00;;;15.40;99.90;;;;;;5007090;28;20089;-64
2023/10/05 08:31:04;;;;;;;2.25;1.05;;;15.40;99.90;;;;;;4999046;28;20478;-64
2023/10/05 08:33:33;;;;;;;1.65;0.80;;;15.50;99.90;;;;;;5005055;28;20045;-64
2023/10/05 08:36:06;;;;;;;0.00;0.00;;;15.50;99.90;;;;;;5002585;28;20100;-64
2023/10/05 08:38:35;;;;;;;0.00;0.00;;;15.50;99.90;;;;;;5009281;28;20038;-64
2023/10/05 08:41:07;;;;;;;0.30;0.30;;;15.50;99.90;;;;;;5004340;28;20133;-64
2023/10/05 08:43:38;;;;;;;2.30;1.27;;;15.60;99.90;;;;;;5003817;28;20073;-64
2023/10/05 08:46:05;;;;;;;0.13;0.13;;;15.60;99.90;;;;;;5010145;28;20058;-64
2023/10/05 08:51:14;;;;;;;0.00;0.00;;;15.70;99.90;;;;;;5008547;28;20084;-64
2023/10/05 08:53:48;;;;;;;0.00;0.00;;;15.70;99.90;;;;;;5009580;28;20953;-64
2023/10/05 08:56:15;;;;;;;0.10;0.10;;;15.80;99.90;;;;;;5004094;28;20054;-64
2023/10/05 08:58:46;;;;;;;0.22;0.22;;;15.90;99.90;;;;;;5002101;28;20053;-64
2023/10/05 09:01:24;;;;;;;0.00;0.00;;;16.00;99.90;;;;;;5002123;28;20046;-64
2023/10/05 09:03:56;;;;;;;0.20;0.20;;;16.10;99.90;;;;;;5008574;28;20061;-64
2023/10/05 09:06:24;;;;;;;0.32;0.32;;;16.10;99.90;;;;;;4997231;28;20101;-64
2023/10/05 09:08:51;;;;;;;5.03;0.63;;;16.10;99.90;;;;;;5006442;28;20136;-64
2023/10/05 09:11:26;;;;;;;0.20;0.20;;;16.10;99.90;;;;;;5010819;28;20444;-64
2023/10/05 09:13:52;;;;;;;0.40;0.40;;;16.00;99.90;;;;;;5006442;28;20050;-64
2023/10/05 09:16:32;;;;;;;0.68;0.43;;;16.00;99.90;;;;;;5000491;28;20096;-64
2023/10/05 09:19:00;;;;;;;0.10;0.10;;;15.90;99.90;;;;;;5005422;28;20861;-64
2023/10/05 09:24:25;;;;;;;0.52;0.52;;;15.90;99.90;;;;;;5001554;28;20100;-64
2023/10/05 09:26:52;;;;;;;1.27;0.45;;;15.90;99.90;;;;;;4998487;28;20148;-64
2023/10/05 09:29:28;;;;;;;0.08;0.08;;;15.90;99.90;;;;;;4999404;28;20050;-64
2023/10/05 09:31:54;;;;;;;0.20;0.20;;;15.80;99.90;;;;;;5001188;28;20056;-64
2023/10/05 09:34:41;;;;;;;0.57;0.57;;;15.90;99.90;;;;;;4998363;28;20085;-64
2023/10/05 09:37:08;;;;;;;2.55;1.45;;;15.80;99.90;;;;;;5006184;28;20501;-65
2023/10/05 09:39:44;;;;;;;0.10;0.10;;;15.80;99.90;;;;;;4996107;28;20100;-65
2023/10/05 09:42:16;;;;;;;0.10;0.10;;;15.70;99.90;;;;;;5006751;28;20112;-65
2023/10/05 09:44:51;;;;;;;0.57;0.57;;;15.70;99.90;;;;;;4999759;28;20502;-65
2023/10/05 09:47:33;;;;;;;0.85;0.73;;;15.60;99.90;;;;;;5006511;28;20056;-65
2023/10/05 09:50:00;;;;;;;0.00;0.00;;;15.60;99.90;;;;;;5021320;28;20137;-65
2023/10/05 09:52:37;;;;;;;0.15;0.15;;;15.60;99.90;;;;;;5007689;28;20042;-65
2023/10/05 09:55:05;;;;;;;0.17;0.17;;;15.60;99.90;;;;;;4993834;28;20047;-65
2023/10/05 09:57:41;;;;;;;0.25;0.25;;;15.60;99.90;;;;;;5003551;28;20038;-65
2023/10/05 10:03:03;;;;;;;0.10;0.10;;;15.70;99.90;;;;;;5003060;28;20209;-65
2023/10/05 10:05:48;;;;;;;0.00;0.00;;;15.80;99.90;;;;;;5004956;28;20046;-65
2023/10/05 10:08:14;;;;;;;0.32;0.32;;;15.90;99.90;;;;;;5001004;28;20041;-65
2023/10/05 10:10:51;;;;;;;0.95;0.90;;;16.10;99.90;;;;;;5012655;28;20451;-65
2023/10/05 10:13:21;;;;;;;0.10;0.10;;;16.10;99.90;;;;;;4996688;28;20057;-65
2023/10/05 10:15:49;;;;;;;0.10;0.10;;;16.20;99.90;;;;;;4994217;28;20074;-65
2023/10/05 10:18:15;;;;;;;1.25;0.55;;;16.20;99.90;;;;;;5002268;28;20073;-65
2023/10/05 10:21:07;;;;;;;0.00;0.00;;;16.20;99.90;;;;;;4997648;28;20077;-65
2023/10/05 10:23:36;;;;;;;0.10;0.10;;;16.20;99.90;;;;;;4996179;28;20046;-64
2023/10/05 10:26:16;;;;;;;0.10;0.10;;;16.20;99.90;;;;;;4998428;28;20057;-64
2023/10/05 10:31:29;;;;;;;0.00;0.00;;;16.40;99.90;;;;;;4999150;28;20066;-65
2023/10/05 10:34:19;;;;;;;0.10;0.10;;;16.50;99.90;;;;;;5001382;28;20113;-65
2023/10/05 10:36:52;;;;;;;0.10;0.10;;;16.60;99.90;;;;;;4990447;28;20049;-65
2023/10/05 10:39:27;;;;;;;0.25;0.25;;;17.00;99.90;;;;;;5002240;28;20038;-64
2023/10/05 10:42:19;;;;;;;0.13;0.13;;;17.20;99.90;;;;;;5002028;28;20125;-64
2023/10/05 10:47:17;;;;;;;0.15;0.15;;;17.40;99.90;;;;;;4999383;28;20100;-65
2023/10/05 10:50:11;;;;;;;0.30;0.30;;;17.30;99.90;;;;;;5004550;28;20562;-65
2023/10/05 10:52:38;;;;;;;0.00;0.00;;;17.30;99.90;;;;;;5000892;28;20048;-65
2023/10/05 10:55:07;;;;;;;0.20;0.20;;;17.20;99.90;;;;;;5004643;28;20039;-65
2023/10/05 10:57:33;;;;;;;0.30;0.30;;;17.10;99.90;;;;;;4997977;28;20136;-65
2023/10/05 11:02:44;;;;;;;0.03;0.03;;;17.10;99.90;;;;;;5005073;28;20514;-65
2023/10/05 11:05:15;;;;;;;0.15;0.15;;;17.20;99.90;;;;;;4994684;28;20049;-64
2023/10/05 11:07:42;;;;;;;0.08;0.08;;;17.40;99.90;;;;;;5004927;28;20046;-64
2023/10/05 11:10:19;;;;;;;0.75;0.75;;;17.60;99.90;;;;;;5003042;28;20050;-64
2023/10/05 11:12:53;;;;;;;13.93;3.22;;;17.60;99.90;;;;;;4996053;28;20176;-64
2023/10/05 11:15:22;;;;;;;0.00;0.00;;;17.50;99.90;;;;;;5007492;28;20046;-65
2023/10/05 11:17:52;;;;;;;13.60;1.17;;;17.30;99.90;;;;;;4996646;28;20474;-64
2023/10/05 11:20:33;;;;;;;0.00;0.00;;;17.20;99.90;;;;;;5004354;28;20045;-65
2023/10/05 11:23:03;;;;;;;0.10;0.10;;;17.00;99.90;;;;;;5009950;28;20050;-64
2023/10/05 11:25:32;;;;;;;0.20;0.20;;;16.90;99.90;;;;;;5003775;28;20103;-65
2023/10/05 11:27:59;;;;;;;1.80;1.65;;;16.80;99.90;;;;;;5001784;28;20394;-64
2023/10/05 11:30:41;;;;;;;0.10;0.10;;;16.70;99.90;;;;;;5010185;28;20065;-64
2023/10/05 11:33:15;;;;;;;27.65;0.80;;;16.60;99.90;;;;;;5005169;28;20049;-64
2023/10/05 11:35:48;;;;;;;0.10;0.10;;;16.50;99.90;;;;;;5006339;28;20088;-64
2023/10/05 11:38:19;;;;;;;;;;;16.40;99.90;;;;;;5003808;28;20096;-64
2023/10/05 11:40:56;;;;;;;0.60;0.52;;;16.40;99.90;;;;;;5001730;28;19967;-64
2023/10/05 11:43:26;;;;;;;0.10;0.10;;;16.40;99.90;;;;;;5009057;28;20064;-64
2023/10/05 11:45:58;;;;;;;0.00;0.00;;;16.40;99.90;;;;;;5007334;28;20046;-64
2023/10/05 11:48:47;;;;;;;0.30;0.30;;;16.40;99.90;;;;;;5003375;28;20045;-64
2023/10/05 11:51:16;;;;;;;0.00;0.00;;;16.30;99.90;;;;;;5000647;28;20053;-64
2023/10/05 11:53:43;;;;;;;0.00;0.00;;;16.40;99.90;;;;;;5005066;28;20080;-64
2023/10/05 11:56:09;;;;;;;3.47;0.73;;;16.50;99.90;;;;;;5005204;28;20060;-64
2023/10/05 11:58:41;;;;;;;0.40;0.40;;;16.40;99.90;;;;;;5000889;28;20398;-65
2023/10/05 12:01:07;;;;;;;0.00;0.00;;;16.50;99.90;;;;;;5003272;28;20057;-65
2023/10/05 12:03:33;;;;;;;0.20;0.20;;;16.50;99.90;;;;;;5004692;28;20684;-64
2023/10/05 12:06:00;;;;;;;0.10;0.10;;;16.60;99.90;;;;;;5005224;28;20104;-64
2023/10/05 12:08:29;;;;;;;0.10;0.10;;;16.80;99.90;;;;;;5002056;28;20042;-64
2023/10/05 12:10:59;;;;;;;0.00;0.00;;;17.00;99.90;;;;;;4999758;28;20371;-64
2023/10/05 12:13:28;;;;;;;0.00;0.00;;;17.10;99.90;;;;;;5000455;28;20049;-65
2023/10/05 12:15:54;;;;;;;0.10;0.10;;;17.10;99.90;;;;;;5011463;28;20108;-64
2023/10/05 12:18:20;;;;;;;4.18;0.63;;;17.00;99.90;;;;;;5002950;28;20041;-64
2023/10/05 12:20:48;;;;;;;1.05;1.05;;;17.10;99.90;;;;;;4999335;28;20486;-64
2023/10/05 12:23:17;;;;;;;0.65;0.22;;;17.10;99.90;;;;;;4999845;28;20072;-65
2023/10/05 12:25:46;;;;;;;0.00;0.00;;;17.00;99.90;;;;;;5003546;28;20053;-65
2023/10/05 12:28:12;;;;;;;0.00;0.00;;;17.00;99.90;;;;;;5010841;28;20100;-65
2023/10/05 12:30:44;;;;;;;0.43;0.43;;;17.10;99.90;;;;;;5000440;28;20050;-65
2023/10/05 12:33:12;;;;;;;0.30;0.30;;;17.20;99.90;;;;;;5001540;28;20034;-65
2023/10/05 12:35:38;;;;;;;0.00;0.00;;;17.30;99.90;;;;;;4993618;28;20441;-65
2023/10/05 12:38:06;;;;;;;0.00;0.00;;;17.50;99.90;;;;;;5005579;28;20176;-65
2023/10/05 12:40:33;;;;;;;1.25;0.40;;;17.50;99.90;;;;;;5010172;28;20112;-64
2023/10/05 12:43:00;;;;;;;0.00;0.00;;;17.50;99.90;;;;;;5009666;28;20148;-65
2023/10/05 12:45:26;;;;;;;3.22;0.90;;;17.50;99.90;;;;;;4994753;28;20046;-64
2023/10/05 12:47:55;;;;;;;0.28;0.20;;;17.70;99.90;;;;;;4999889;28;20038;-65
2023/10/05 12:50:22;;;;;;;0.68;0.68;;;18.10;99.90;;;;;;5006165;28;20148;-65
2023/10/05 12:52:50;;;;;;;0.00;0.00;;;18.10;99.90;;;;;;5005938;28;20056;-65
2023/10/05 12:55:22;;;;;;;0.00;0.00;;;18.70;99.90;;;;;;5005079;28;20057;-65
2023/10/05 12:57:52;;;;;;;1.17;0.40;;;19.20;99.90;;;;;;5000124;28;20120;-65
2023/10/05 13:00:31;;;;;;;0.52;0.52;;;19.70;99.90;;;;;;5006782;28;20085;-64
2023/10/05 13:03:00;;;;;;;0.00;0.00;;;19.60;99.90;;;;;;5002423;28;20046;-65
2023/10/05 13:05:31;;;;;;;0.00;0.00;;;19.30;99.90;;;;;;5000056;28;20099;-65
2023/10/05 13:08:01;;;;;;;0.00;0.00;;;19.00;99.90;;;;;;5009334;28;20137;-65
2023/10/05 13:10:31;;;;;;;0.20;0.20;;;18.80;99.90;;;;;;5006689;28;20124;-64
2023/10/05 13:13:00;;;;;;;0.00;0.00;;;18.70;99.90;;;;;;5002018;28;20136;-65
2023/10/05 13:15:32;;;;;;;0.10;0.10;;;18.60;99.90;;;;;;4997289;28;20046;-64
2023/10/05 13:18:20;;;;;;;0.43;0.43;;;18.40;99.90;;;;;;5004132;28;20052;-64
2023/10/05 13:20:47;;;;;;;0.20;0.20;;;18.40;99.90;;;;;;5004239;28;20057;-64
2023/10/05 13:23:15;;;;;;;0.10;0.10;;;18.60;99.90;;;;;;4998946;28;20041;-64
2023/10/05 13:25:43;;;;;;;0.45;0.22;;;18.50;99.90;;;;;;5006530;28;20073;-64
2023/10/05 13:28:11;;;;;;;0.10;0.10;;;18.40;99.90;;;;;;5002353;28;20532;-65
2023/10/05 13:30:41;;;;;;;0.55;0.40;;;18.20;99.90;;;;;;4997117;28;20054;-64
2023/10/05 13:33:13;;;;;;;0.25;0.15;;;18.10;99.90;;;;;;5004216;28;20046;-65
2023/10/05 13:35:42;;;;;;;1.20;1.10;;;18.00;99.90;;;;;;5004913;28;20050;-65
2023/10/05 13:38:16;;;;;;;0.00;0.00;;;17.90;99.90;;;;;;4998748;28;20454;-64
2023/10/05 13:40:58;;;;;;;0.00;0.00;;;17.70;99.90;;;;;;5004827;28;20046;-64